This is the latest recevied weather packets stored in our database for station/object N5BTB-10. If no packets are shown the sender has not sent any weather packets the latest 10 day(s).
| Time | Temp. | Humidity | Pressure | Rain* | Wind** | Luminosity | Snow |
|---|---|---|---|---|---|---|---|
| 1777993205 | 12.22° C | 80% | - | 0 mm | - | - | - |
| 1777989605 | 11.67° C | 82% | - | 0 mm | - | - | - |
| 1777986005 | 11.67° C | 82% | - | 0 mm | - | - | - |
| 1777982405 | 11.67° C | 80% | - | 0 mm | - | - | - |
| 1777978805 | 11.67° C | 80% | - | 0 mm | - | - | - |
| 1777975206 | 11.67° C | 80% | - | 0 mm | - | - | - |
| 1777971606 | 11.67° C | 80% | - | 0 mm | - | - | - |
| 1777968006 | 11.67° C | 80% | - | 0 mm | - | - | - |
| 1777964406 | 11.67° C | 81% | - | 0 mm | - | - | - |
| 1777960806 | 12.22° C | 81% | - | 0 mm | - | - | - |
| 1777957206 | 12.22° C | 81% | - | 0 mm | - | - | - |
| 1777953606 | 12.22° C | 79% | - | 0 mm | - | - | - |
| 1777950006 | 13.89° C | 73% | - | 0 mm | - | - | - |
| 1777946406 | 16.11° C | 69% | - | 0 mm | - | - | - |
| 1777942806 | 17.78° C | 68% | - | 0 mm | - | - | - |
| 1777939205 | 20° C | 62% | - | 0 mm | - | - | - |
| 1777935606 | 23.89° C | 54% | - | 0 mm | - | - | - |
| 1777932005 | 25.56° C | 49% | - | 0 mm | - | - | - |
| 1777928405 | 25° C | 51% | - | 0 mm | - | - | - |
| 1777924805 | 23.89° C | 54% | - | 0 mm | - | - | - |
| 1777921205 | 21.11° C | 61% | - | 0 mm | - | - | - |
| 1777917605 | 20° C | 62% | - | 0 mm | - | - | - |
| 1777914005 | 16.11° C | 67% | - | 0 mm | - | - | - |
| 1777910405 | 13.33° C | 77% | - | 0 mm | - | - | - |
| 1777906805 | 12.22° C | 81% | - | 0 mm | - | - | - |
* Rain latest hour (hover to see other rain measurements)
** Current wind speed in m/s (hover to see current wind gust speed)